Tuesday, January 17, 2017, 3:48 AM EST

KFDK, Frederick, Frederick Municipal Airport

Location: Frederick, MD, United States Lat: 39.417
Local Time: 3:48 AM EST ( 8:48 GMT) Lon: -77.374
Time Zone: US/Eastern Elev: 301 ft

Show me the last for .
Show Decoded

2017-01-17 03:40 METAR KFDK 170840Z AUTO 00000KT 7SM OVC007 02/02 A3025 RMK AO2 =
2017-01-17 03:20 METAR KFDK 170820Z AUTO 00000KT 7SM OVC009 02/02 A3025 RMK AO2 =
2017-01-17 03:00 METAR KFDK 170800Z AUTO 00000KT 7SM OVC009 02/02 A3026 RMK AO2 =
2017-01-17 02:40 METAR KFDK 170740Z AUTO 00000KT 7SM OVC009 02/02 A3027 RMK AO2 =
2017-01-17 02:20 METAR KFDK 170720Z AUTO 00000KT 7SM OVC011 02/02 A3027 RMK AO2 =
2017-01-17 02:00 METAR KFDK 170700Z AUTO 00000KT 7SM OVC011 02/02 A3028 RMK AO2 =
2017-01-17 01:40 METAR KFDK 170640Z AUTO 00000KT 7SM OVC013 02/02 A3027 RMK AO2 =
2017-01-17 01:20 METAR KFDK 170620Z AUTO 00000KT 7SM OVC013 02/02 A3028 RMK AO2 =
2017-01-17 01:00 METAR KFDK 170600Z AUTO 00000KT 7SM OVC013 02/02 A3029 RMK AO2 =
2017-01-17 00:40 METAR KFDK 170540Z AUTO 00000KT 7SM -DZ OVC015 02/02 A3029 RMK AO2 =
2017-01-17 00:20 METAR KFDK 170520Z AUTO 00000KT 7SM -DZ OVC015 02/02 A3029 RMK AO2 =
2017-01-17 00:00 METAR KFDK 170500Z AUTO 00000KT 7SM OVC015 02/02 A3030 RMK AO2 =
2017-01-16 23:40 METAR KFDK 170440Z AUTO 00000KT 7SM OVC017 02/02 A3031 RMK AO2 =
2017-01-16 23:20 METAR KFDK 170420Z AUTO 00000KT 7SM OVC017 02/02 A3032 RMK AO2 =
2017-01-16 23:00 METAR KFDK 170400Z AUTO 00000KT 7SM OVC017 02/02 A3033 RMK AO2 LTG DSNT W =
2017-01-16 22:40 METAR KFDK 170340Z AUTO 00000KT 7SM OVC017 02/02 A3033 RMK AO2 =
2017-01-16 22:20 METAR KFDK 170320Z AUTO 00000KT 7SM OVC017 02/02 A3034 RMK AO2 LTG DSNT W =
2017-01-16 22:00 METAR KFDK 170300Z AUTO 00000KT 10SM OVC017 02/02 A3034 RMK AO2 =
2017-01-16 21:40 METAR KFDK 170240Z AUTO 00000KT 10SM OVC017 02/02 A3036 RMK AO2 LTG DSNT W =
2017-01-16 21:20 METAR KFDK 170220Z AUTO 01003KT 10SM OVC017 02/02 A3036 RMK AO2 =
2017-01-16 21:00 METAR KFDK 170200Z AUTO 00000KT 10SM OVC017 02/02 A3036 RMK AO2 LTG DSNT W =
2017-01-16 18:48 METAR KFDK 162348Z 00000KT 10SM OVC021 05/04 A3037 =
2017-01-16 17:48 METAR KFDK 162248Z 00000KT 10SM OVC025 06/02 A3038 =
2017-01-16 16:51 METAR KFDK 162151Z 17004KT 10SM OVC025 06/02 A3038 =
2017-01-16 15:47 METAR KFDK 162047Z 22005KT 10SM OVC025 07/02 A3038 =
2017-01-16 14:50 METAR KFDK 161950Z 15004KT 10SM OVC023 07/02 A3037 =
2017-01-16 13:48 METAR KFDK 161848Z 23005KT 10SM OVC023 06/01 A3040 =
2017-01-16 12:50 METAR KFDK 161750Z 00000KT 10SM BKN032 OVC095 04/M01 A3042 =
2017-01-16 11:50 METAR KFDK 161650Z 00000KT 10SM OVC019 03/M02 A3046 =
2017-01-16 10:50 METAR KFDK 161550Z 00000KT 10SM OVC022 02/M02 A3050 =
2017-01-16 09:50 METAR KFDK 161450Z 00000KT 10SM OVC026 01/M03 A3050 =
2017-01-16 08:47 METAR KFDK 161347Z 00000KT 10SM OVC028 00/M03 A3050 =
2017-01-16 07:50 METAR KFDK 161250Z 00000KT 10SM OVC030 M01/M03 A3049 =
2017-01-16 06:50 METAR KFDK 161150Z AUTO 35003KT 10SM OVC030 00/M02 A3049 RMK AO2 =
2017-01-16 06:48 METAR KFDK 161148Z 00000KT 10SM OVC030 M01/M03 A3048 =
2017-01-16 06:40 METAR KFDK 161140Z AUTO 36003KT 10SM OVC030 00/M02 A3049 RMK AO2 =
2017-01-16 06:20 METAR KFDK 161120Z AUTO 00000KT 10SM OVC028 00/M02 A3048 RMK AO2 =
2017-01-16 06:00 METAR KFDK 161100Z AUTO 01003KT 10SM OVC028 00/M03 A3048 RMK AO2 =
2017-01-16 05:40 METAR KFDK 161040Z AUTO 35003KT 10SM OVC028 00/M03 A3048 RMK AO2 =
2017-01-16 05:20 METAR KFDK 161020Z AUTO 01004KT 10SM BKN028 OVC035 00/M03 A3047 RMK AO2 =
2017-01-16 05:00 METAR KFDK 161000Z AUTO 01003KT 10SM BKN030 OVC035 00/M03 A3047 RMK AO2 =
2017-01-16 04:40 METAR KFDK 160940Z AUTO 01003KT 10SM BKN028 OVC037 00/M03 A3047 RMK AO2 =
2017-01-16 04:20 METAR KFDK 160920Z AUTO 36003KT 10SM SCT028 OVC037 00/M03 A3047 RMK AO2 =
2017-01-16 04:00 METAR KFDK 160900Z AUTO 36003KT 10SM BKN028 OVC037 00/M03 A3047 RMK AO2 =

Support USWX by starting your Amazon purchase here.